createdAt,value
2023-12-26T00:01:50.620Z,5.43
2023-12-26T00:04:31.186Z,6.20
2023-12-26T00:07:04.002Z,5.37
2023-12-26T00:09:47.139Z,5.20
2023-12-26T00:12:19.640Z,5.73
2023-12-26T00:15:00.300Z,7.03
2023-12-26T00:17:32.895Z,6.07
2023-12-26T00:20:14.099Z,5.20
2023-12-26T00:22:46.744Z,5.23
2023-12-26T00:25:26.532Z,5.00
2023-12-26T00:28:01.958Z,4.80
2023-12-26T00:30:44.424Z,4.90
2023-12-26T00:33:20.128Z,4.43
2023-12-26T00:35:59.285Z,4.63
2023-12-26T00:38:31.509Z,4.60
2023-12-26T00:41:11.573Z,4.30
2023-12-26T00:43:45.729Z,4.30
2023-12-26T00:46:25.234Z,4.37
2023-12-26T00:48:58.586Z,4.53
2023-12-26T00:51:38.141Z,4.00
2023-12-26T00:54:10.614Z,4.10
2023-12-26T00:56:49.066Z,4.60
2023-12-26T00:59:21.316Z,4.37
2023-12-26T01:02:00.204Z,3.87
2023-12-26T01:04:32.615Z,3.83
2023-12-26T01:07:13.225Z,3.90
2023-12-26T01:09:46.226Z,4.70
2023-12-26T01:12:25.574Z,4.90
2023-12-26T01:15:00.984Z,4.77
2023-12-26T01:17:40.301Z,4.23
2023-12-26T01:20:12.917Z,4.80
2023-12-26T01:22:52.592Z,4.13
2023-12-26T01:25:25.623Z,4.77
2023-12-26T01:28:05.383Z,4.33
2023-12-26T01:30:38.481Z,4.50
2023-12-26T01:33:18.514Z,4.70
2023-12-26T01:35:51.548Z,5.53
2023-12-26T01:38:30.413Z,5.57
2023-12-26T01:41:03.146Z,5.83
2023-12-26T01:43:42.199Z,6.53
2023-12-26T01:46:15.275Z,5.07
2023-12-26T01:48:59.190Z,5.60
2023-12-26T01:51:32.914Z,5.17
2023-12-26T01:54:12.083Z,5.30
2023-12-26T01:56:44.532Z,5.20
2023-12-26T01:59:24.269Z,4.37
2023-12-26T02:01:57.408Z,5.03
2023-12-26T02:04:37.228Z,4.37
2023-12-26T02:07:09.499Z,4.53
2023-12-26T02:09:49.292Z,4.57
2023-12-26T02:12:22.688Z,4.80
2023-12-26T02:15:02.162Z,6.33
2023-12-26T02:17:37.008Z,6.53
2023-12-26T02:20:17.016Z,8.87
2023-12-26T02:22:49.888Z,9.37
2023-12-26T02:25:30.503Z,6.20
2023-12-26T02:28:07.587Z,6.17
2023-12-26T02:30:47.334Z,5.73
2023-12-26T02:33:21.121Z,5.13
2023-12-26T02:36:00.429Z,4.50
2023-12-26T02:38:33.941Z,4.80
2023-12-26T02:41:15.977Z,5.40
2023-12-26T02:43:51.498Z,4.60
2023-12-26T02:46:31.383Z,4.97
2023-12-26T02:49:03.757Z,5.13
2023-12-26T02:51:43.243Z,5.77
2023-12-26T02:54:18.255Z,6.13
2023-12-26T02:57:00.211Z,5.40
2023-12-26T02:59:32.544Z,6.23
2023-12-26T03:02:11.337Z,5.77
2023-12-26T03:04:44.066Z,5.53
2023-12-26T03:07:24.558Z,5.83
2023-12-26T03:09:57.165Z,5.57
2023-12-26T03:12:38.518Z,5.20
2023-12-26T03:15:13.348Z,5.80
2023-12-26T03:17:53.277Z,5.47
2023-12-26T03:20:25.927Z,5.87
2023-12-26T03:23:05.559Z,5.83
2023-12-26T03:25:38.483Z,5.63
2023-12-26T03:28:17.626Z,5.53
2023-12-26T03:30:49.899Z,5.60
2023-12-26T03:33:29.343Z,4.90
2023-12-26T03:36:03.556Z,6.20
2023-12-26T03:38:44.166Z,8.70
2023-12-26T03:41:16.495Z,31.37
2023-12-26T03:43:56.141Z,52.97
2023-12-26T03:46:28.969Z,63.33
2023-12-26T03:49:08.455Z,49.57
2023-12-26T03:51:40.655Z,21.83
2023-12-26T03:54:19.385Z,14.93
2023-12-26T03:56:52.807Z,9.93
2023-12-26T03:59:36.647Z,6.77
2023-12-26T04:02:09.613Z,5.97
2023-12-26T04:04:49.076Z,5.33
2023-12-26T04:07:21.437Z,5.00
2023-12-26T04:10:00.477Z,5.10
2023-12-26T04:12:33.099Z,5.37
2023-12-26T04:15:13.384Z,5.27
2023-12-26T04:17:46.272Z,5.40
2023-12-26T04:20:27.029Z,4.90
2023-12-26T04:22:59.467Z,4.87
2023-12-26T04:25:39.621Z,4.27
2023-12-26T04:28:12.065Z,4.17
2023-12-26T04:30:51.310Z,3.50
2023-12-26T04:33:23.998Z,3.80
2023-12-26T04:36:06.043Z,3.50
2023-12-26T04:38:38.734Z,3.00
2023-12-26T04:41:19.474Z,3.33
2023-12-26T04:43:51.944Z,2.87
2023-12-26T04:46:31.263Z,3.27
2023-12-26T04:49:04.430Z,3.20
2023-12-26T04:51:44.222Z,2.93
2023-12-26T04:54:17.535Z,3.43
2023-12-26T04:56:56.445Z,3.23
2023-12-26T04:59:29.025Z,3.53
2023-12-26T05:02:08.582Z,2.67
2023-12-26T05:04:41.075Z,2.80
2023-12-26T05:07:20.546Z,2.40
2023-12-26T05:09:53.062Z,2.70
2023-12-26T05:12:32.396Z,2.80
2023-12-26T05:15:06.350Z,2.07
2023-12-26T05:17:46.769Z,2.17
2023-12-26T05:20:29.780Z,1.70
2023-12-26T05:23:10.416Z,1.10
2023-12-26T05:25:42.703Z,2.00
2023-12-26T05:28:22.271Z,1.90
2023-12-26T05:30:54.757Z,1.60
2023-12-26T05:33:34.623Z,1.53
2023-12-26T05:36:13.634Z,1.40
2023-12-26T05:38:53.973Z,1.43
2023-12-26T05:41:26.535Z,1.47
2023-12-26T05:44:05.116Z,1.33
2023-12-26T05:46:37.956Z,1.30
2023-12-26T05:49:18.027Z,1.43
2023-12-26T05:51:51.136Z,1.30
2023-12-26T05:54:30.310Z,1.37
2023-12-26T05:57:04.762Z,1.90
2023-12-26T05:59:45.441Z,1.60
2023-12-26T06:02:18.500Z,1.50
2023-12-26T06:04:58.373Z,1.40
2023-12-26T06:07:33.831Z,1.67
2023-12-26T06:10:20.861Z,1.57
2023-12-26T06:12:53.651Z,1.60
2023-12-26T06:15:33.264Z,1.37
2023-12-26T06:18:05.986Z,1.93
2023-12-26T06:20:47.691Z,2.47
2023-12-26T06:23:20.061Z,1.80
2023-12-26T06:26:00.259Z,1.93
2023-12-26T06:28:33.033Z,2.00
2023-12-26T06:31:12.551Z,1.90
2023-12-26T06:33:45.133Z,2.57
2023-12-26T06:36:24.194Z,2.53
2023-12-26T06:38:56.553Z,2.50
2023-12-26T06:41:37.222Z,2.60
2023-12-26T06:44:10.355Z,2.50
2023-12-26T06:46:50.597Z,3.00
2023-12-26T06:49:23.381Z,2.30
2023-12-26T06:52:02.494Z,2.40
2023-12-26T06:54:35.671Z,2.27
2023-12-26T06:57:15.755Z,3.00
2023-12-26T06:59:49.481Z,3.47
2023-12-26T07:02:28.217Z,4.07
2023-12-26T07:05:00.746Z,4.13
2023-12-26T07:07:39.392Z,3.40
2023-12-26T07:10:11.752Z,3.53
2023-12-26T07:12:51.470Z,2.43
2023-12-26T07:15:24.186Z,2.20
2023-12-26T07:18:03.353Z,1.77
2023-12-26T07:20:36.228Z,1.90
2023-12-26T07:23:15.295Z,2.13
2023-12-26T07:25:47.777Z,2.27
2023-12-26T07:28:26.231Z,2.83
2023-12-26T07:30:59.737Z,2.53
2023-12-26T07:33:39.469Z,2.80
2023-12-26T07:36:12.396Z,3.53
2023-12-26T07:38:57.387Z,3.13
2023-12-26T07:41:30.800Z,4.97
2023-12-26T07:44:11.016Z,11.37
2023-12-26T07:46:43.591Z,17.60
2023-12-26T07:49:22.673Z,10.07
2023-12-26T07:51:55.307Z,10.07
2023-12-26T07:54:34.635Z,7.60
2023-12-26T07:57:07.607Z,6.23
2023-12-26T07:59:46.603Z,8.97
2023-12-26T08:02:25.191Z,11.27
2023-12-26T08:05:04.280Z,17.70
2023-12-26T08:07:36.961Z,13.93
2023-12-26T08:10:16.230Z,16.03
2023-12-26T08:12:49.184Z,12.93
2023-12-26T08:15:28.448Z,12.97
2023-12-26T08:18:01.021Z,7.43
2023-12-26T08:20:41.404Z,11.83
2023-12-26T08:23:14.311Z,4.67
2023-12-26T08:25:53.335Z,8.00
2023-12-26T08:28:25.883Z,9.17
2023-12-26T08:31:05.232Z,6.63
2023-12-26T08:33:39.656Z,4.00
2023-12-26T08:36:18.473Z,6.60
2023-12-26T08:38:50.762Z,3.97
2023-12-26T08:41:30.743Z,3.60
2023-12-26T08:44:03.064Z,6.70
2023-12-26T08:46:42.505Z,7.77
2023-12-26T08:49:15.288Z,5.10
2023-12-26T08:51:54.301Z,10.93
2023-12-26T08:54:27.008Z,12.00
2023-12-26T08:57:06.323Z,9.60
2023-12-26T08:59:39.060Z,4.30
2023-12-26T09:02:18.790Z,4.87
2023-12-26T09:04:52.277Z,6.97
2023-12-26T09:07:31.701Z,6.57
2023-12-26T09:10:05.481Z,6.50
2023-12-26T09:12:45.287Z,5.47
2023-12-26T09:15:17.957Z,5.70
2023-12-26T09:17:57.603Z,5.37
2023-12-26T09:20:30.325Z,5.40
2023-12-26T09:23:09.542Z,4.73
2023-12-26T09:25:42.228Z,4.63
2023-12-26T09:28:23.895Z,6.13
2023-12-26T09:30:56.847Z,4.40
2023-12-26T09:33:36.658Z,4.40
2023-12-26T09:36:09.619Z,5.93
2023-12-26T09:38:48.488Z,4.33
2023-12-26T09:41:24.713Z,3.87
2023-12-26T09:44:04.376Z,5.00
2023-12-26T09:46:36.734Z,5.10
2023-12-26T09:49:16.903Z,5.20
2023-12-26T09:51:55.157Z,3.73
2023-12-26T09:54:37.700Z,4.70
2023-12-26T09:57:12.016Z,4.17
2023-12-26T09:59:52.080Z,5.37
2023-12-26T10:02:26.037Z,4.90
2023-12-26T10:05:08.535Z,4.43
2023-12-26T10:07:41.220Z,4.43
2023-12-26T10:10:21.531Z,4.93
2023-12-26T10:12:55.755Z,7.00
2023-12-26T10:15:36.050Z,10.20
2023-12-26T10:18:09.974Z,10.67
2023-12-26T10:20:49.392Z,9.97
2023-12-26T10:23:24.371Z,14.67
2023-12-26T10:26:03.371Z,14.77
2023-12-26T10:28:39.246Z,8.97
2023-12-26T10:31:22.510Z,13.17
2023-12-26T10:33:55.093Z,14.10
2023-12-26T10:36:34.341Z,6.47
2023-12-26T10:39:15.880Z,9.43
2023-12-26T10:41:56.868Z,7.70
2023-12-26T10:45:03.909Z,4.27
2023-12-26T10:47:44.207Z,4.70
2023-12-26T10:50:18.181Z,3.60
2023-12-26T10:53:23.623Z,3.43
2023-12-26T10:55:57.550Z,3.90
2023-12-26T10:58:37.618Z,3.50
2023-12-26T11:01:47.715Z,3.80
2023-12-26T11:05:03.434Z,6.47
2023-12-26T11:08:13.077Z,6.03
2023-12-26T11:11:29.427Z,4.57
2023-12-26T11:14:39.288Z,4.97
2023-12-26T11:17:58.622Z,6.63
2023-12-26T11:21:08.456Z,5.93
2023-12-26T11:24:25.575Z,5.40
2023-12-26T11:27:36.189Z,5.03
2023-12-26T11:30:53.083Z,5.10
2023-12-26T11:34:05.488Z,4.50
2023-12-26T11:37:21.760Z,4.87
2023-12-26T11:40:31.266Z,4.20
2023-12-26T11:43:47.422Z,4.10
2023-12-26T11:46:57.755Z,4.63
2023-12-26T11:50:14.561Z,5.70
2023-12-26T11:53:24.468Z,4.80
2023-12-26T11:56:40.391Z,5.47
2023-12-26T11:59:51.256Z,6.40
2023-12-26T12:03:12.208Z,5.73
2023-12-26T12:06:21.852Z,6.13
2023-12-26T12:09:41.184Z,5.07
2023-12-26T12:12:50.949Z,5.47
2023-12-26T12:16:07.580Z,5.47
2023-12-26T12:19:17.282Z,5.70
2023-12-26T12:23:02.808Z,5.67
2023-12-26T12:26:12.250Z,5.90
2023-12-26T12:29:31.018Z,5.93
2023-12-26T12:32:41.037Z,6.30
2023-12-26T12:35:57.457Z,5.40
2023-12-26T12:39:07.847Z,6.17
2023-12-26T12:42:24.401Z,5.67
2023-12-26T12:45:34.036Z,5.87
2023-12-26T12:48:50.769Z,6.37
2023-12-26T12:52:00.905Z,8.47
2023-12-26T12:55:17.623Z,7.93
2023-12-26T12:58:30.866Z,8.17
2023-12-26T13:01:46.863Z,7.83
2023-12-26T13:04:56.499Z,9.13
2023-12-26T13:08:12.725Z,9.43
2023-12-26T13:11:21.924Z,11.20
2023-12-26T13:14:38.599Z,8.40
2023-12-26T13:17:52.671Z,7.67
2023-12-26T13:21:11.484Z,7.53
2023-12-26T13:24:21.324Z,7.73
2023-12-26T13:27:37.494Z,7.90
2023-12-26T13:30:47.674Z,7.90
2023-12-26T13:34:04.822Z,8.63
2023-12-26T13:37:14.141Z,10.33
2023-12-26T13:40:30.901Z,9.30
2023-12-26T13:43:40.812Z,11.43
2023-12-26T13:46:56.691Z,10.40
2023-12-26T13:50:06.680Z,11.77
2023-12-26T13:53:22.698Z,12.33
2023-12-26T13:56:32.439Z,13.57
2023-12-26T13:59:48.822Z,11.47
2023-12-26T14:02:58.988Z,9.93
2023-12-26T14:06:15.676Z,10.27
2023-12-26T14:09:25.498Z,9.40
2023-12-26T14:12:41.796Z,9.93
2023-12-26T14:15:51.756Z,9.17
2023-12-26T14:19:08.101Z,26.03
2023-12-26T14:22:17.291Z,22.17
2023-12-26T14:25:34.201Z,14.50
2023-12-26T14:28:44.071Z,14.67
2023-12-26T14:32:00.709Z,13.87
2023-12-26T14:35:10.728Z,11.47
2023-12-26T14:38:29.563Z,11.40
2023-12-26T14:41:39.261Z,15.63
2023-12-26T14:44:55.497Z,14.50
2023-12-26T14:48:05.325Z,12.70
2023-12-26T14:51:24.600Z,11.10
2023-12-26T14:54:34.975Z,12.37
2023-12-26T14:57:51.890Z,13.03
2023-12-26T15:01:01.592Z,12.47
2023-12-26T15:03:43.649Z,11.70
2023-12-26T15:06:19.961Z,11.13
2023-12-26T15:08:59.683Z,10.47
2023-12-26T15:11:32.055Z,10.07
2023-12-26T15:14:24.234Z,12.17
2023-12-26T15:17:05.858Z,11.57
2023-12-26T15:19:50.061Z,12.77
2023-12-26T15:22:25.152Z,11.87
2023-12-26T15:25:04.679Z,18.23
2023-12-26T15:27:40.211Z,14.93
2023-12-26T15:30:19.833Z,11.87
2023-12-26T15:32:52.757Z,11.87
2023-12-26T15:35:31.595Z,10.93
2023-12-26T15:38:04.185Z,11.97
2023-12-26T15:40:43.640Z,11.77
2023-12-26T15:43:16.026Z,11.27
2023-12-26T15:45:54.563Z,11.70
2023-12-26T15:48:27.112Z,10.47
2023-12-26T15:51:06.485Z,13.57
2023-12-26T15:53:38.951Z,17.93
2023-12-26T15:56:20.014Z,12.67
2023-12-26T15:58:52.610Z,12.03
2023-12-26T16:01:32.240Z,12.33
2023-12-26T16:04:08.248Z,13.27
2023-12-26T16:06:49.286Z,12.57
2023-12-26T16:09:22.400Z,12.97
2023-12-26T16:12:02.243Z,12.20
2023-12-26T16:14:35.069Z,11.23
2023-12-26T16:17:14.491Z,12.37
2023-12-26T16:19:47.268Z,12.80
2023-12-26T16:22:26.811Z,13.30
2023-12-26T16:24:59.416Z,14.67
2023-12-26T16:27:38.651Z,14.10
2023-12-26T16:30:12.061Z,12.90
2023-12-26T16:32:50.721Z,14.33
2023-12-26T16:35:25.011Z,13.20
2023-12-26T16:38:04.600Z,11.17
2023-12-26T16:40:37.107Z,11.87
2023-12-26T16:43:15.620Z,11.27
2023-12-26T16:45:48.170Z,11.00
2023-12-26T16:48:30.850Z,10.47
2023-12-26T16:51:07.584Z,10.37
2023-12-26T16:53:46.701Z,11.67
2023-12-26T16:56:19.679Z,17.70
2023-12-26T16:58:58.741Z,21.13
2023-12-26T17:01:32.697Z,35.30
2023-12-26T17:04:13.033Z,35.63
2023-12-26T17:06:46.659Z,25.70
2023-12-26T17:09:25.805Z,20.07
2023-12-26T17:11:58.472Z,21.80
2023-12-26T17:14:37.946Z,20.77
2023-12-26T17:17:10.221Z,21.33
2023-12-26T17:19:50.468Z,18.30
2023-12-26T17:22:23.817Z,19.20
2023-12-26T17:25:16.622Z,20.03
2023-12-26T17:27:54.812Z,19.37
2023-12-26T17:30:35.817Z,17.43
2023-12-26T17:33:08.785Z,19.17
2023-12-26T17:35:48.756Z,20.47
2023-12-26T17:38:21.211Z,19.13
2023-12-26T17:41:00.982Z,18.57
2023-12-26T17:43:33.871Z,17.93
2023-12-26T17:46:12.815Z,19.40
2023-12-26T17:48:45.472Z,19.07
2023-12-26T17:51:24.885Z,20.97
2023-12-26T17:54:06.428Z,21.13
2023-12-26T17:56:46.020Z,26.10
2023-12-26T17:59:18.902Z,24.90
2023-12-26T18:01:57.699Z,25.23
2023-12-26T18:04:30.619Z,30.43
2023-12-26T18:07:15.061Z,30.50
2023-12-26T18:09:47.490Z,28.93
2023-12-26T18:12:27.412Z,29.37
2023-12-26T18:14:59.992Z,26.07
2023-12-26T18:17:38.833Z,24.07
2023-12-26T18:20:11.467Z,29.63
2023-12-26T18:22:51.939Z,29.03
2023-12-26T18:25:24.503Z,26.70
2023-12-26T18:28:06.816Z,22.23
2023-12-26T18:30:39.838Z,20.83
2023-12-26T18:33:18.977Z,17.43
2023-12-26T18:35:51.711Z,15.33
2023-12-26T18:38:30.817Z,15.77
2023-12-26T18:41:03.456Z,14.30
2023-12-26T18:43:42.861Z,15.87
2023-12-26T18:46:16.780Z,14.67
2023-12-26T18:48:57.236Z,14.73
2023-12-26T18:51:30.038Z,15.47
2023-12-26T18:54:09.677Z,15.37
2023-12-26T18:56:42.066Z,15.53
2023-12-26T18:59:20.912Z,17.33
2023-12-26T19:01:54.068Z,32.00
2023-12-26T19:04:34.238Z,25.03
2023-12-26T19:07:06.877Z,22.53
2023-12-26T19:09:45.825Z,43.73
2023-12-26T19:12:18.321Z,30.87
2023-12-26T19:14:57.837Z,66.00
2023-12-26T19:17:30.825Z,47.23
2023-12-26T19:20:10.965Z,24.83
2023-12-26T19:22:43.497Z,23.13
2023-12-26T19:25:22.667Z,41.97
2023-12-26T19:27:56.823Z,28.73
2023-12-26T19:30:36.791Z,24.37
2023-12-26T19:33:09.317Z,23.30
2023-12-26T19:35:49.130Z,27.33
2023-12-26T19:38:22.338Z,24.00
2023-12-26T19:41:01.731Z,23.87
2023-12-26T19:43:34.744Z,22.57
2023-12-26T19:46:18.824Z,24.93
2023-12-26T19:48:52.241Z,26.60
2023-12-26T19:51:32.560Z,36.00
2023-12-26T19:54:05.495Z,31.93
2023-12-26T19:56:49.127Z,24.03
2023-12-26T19:59:21.871Z,26.53
2023-12-26T20:02:01.756Z,24.37
2023-12-26T20:04:38.284Z,26.27
2023-12-26T20:07:19.011Z,25.03
2023-12-26T20:09:51.449Z,23.47
2023-12-26T20:12:31.219Z,24.33
2023-12-26T20:15:04.785Z,22.30
2023-12-26T20:17:45.106Z,22.93
2023-12-26T20:20:18.642Z,23.33
2023-12-26T20:22:59.038Z,26.83
2023-12-26T20:25:35.259Z,27.53
2023-12-26T20:28:14.575Z,28.40
2023-12-26T20:30:47.463Z,27.67
2023-12-26T20:33:26.808Z,29.10
2023-12-26T20:36:00.091Z,30.83
2023-12-26T20:38:40.279Z,33.43
2023-12-26T20:41:14.208Z,23.50
2023-12-26T20:43:52.977Z,23.77
2023-12-26T20:46:25.518Z,24.10
2023-12-26T20:49:04.928Z,24.13
2023-12-26T20:51:42.366Z,23.50
2023-12-26T20:54:23.641Z,23.63
2023-12-26T20:56:58.998Z,23.97
2023-12-26T20:59:39.066Z,22.43
2023-12-26T21:02:12.822Z,23.37
2023-12-26T21:04:51.970Z,23.57
2023-12-26T21:07:25.438Z,23.10
2023-12-26T21:10:07.844Z,24.17
2023-12-26T21:12:44.165Z,23.17
2023-12-26T21:15:24.063Z,23.33
2023-12-26T21:17:57.572Z,24.20
2023-12-26T21:20:45.871Z,23.73
2023-12-26T21:23:18.503Z,23.00
2023-12-26T21:25:58.361Z,22.67
2023-12-26T21:28:31.428Z,22.57
2023-12-26T21:31:15.063Z,23.53
2023-12-26T21:33:48.411Z,22.40
2023-12-26T21:36:29.379Z,21.77
2023-12-26T21:39:03.232Z,20.37
2023-12-26T21:41:42.785Z,23.47
2023-12-26T21:44:15.996Z,22.17
2023-12-26T21:46:55.270Z,21.90
2023-12-26T21:49:28.562Z,21.57
2023-12-26T21:52:08.261Z,22.37
2023-12-26T21:54:41.409Z,20.27
2023-12-26T21:57:20.828Z,21.00
2023-12-26T21:59:54.200Z,18.63
2023-12-26T22:02:35.315Z,20.00
2023-12-26T22:05:08.521Z,17.13
2023-12-26T22:07:48.003Z,16.83
2023-12-26T22:10:20.587Z,16.03
2023-12-26T22:12:59.941Z,14.50
2023-12-26T22:15:32.769Z,14.93
2023-12-26T22:18:11.994Z,14.97
2023-12-26T22:20:44.822Z,15.30
2023-12-26T22:23:23.831Z,14.40
2023-12-26T22:25:56.769Z,13.40
2023-12-26T22:28:36.162Z,12.37
2023-12-26T22:31:20.526Z,11.60
2023-12-26T22:33:59.845Z,11.83
2023-12-26T22:36:32.449Z,10.70
2023-12-26T22:39:12.060Z,11.20
2023-12-26T22:41:44.512Z,10.83
2023-12-26T22:44:23.908Z,10.80
2023-12-26T22:46:58.463Z,9.67
2023-12-26T22:49:38.043Z,10.10
2023-12-26T22:52:10.430Z,9.47
2023-12-26T22:54:49.671Z,10.27
2023-12-26T22:57:22.326Z,9.10
2023-12-26T23:00:01.768Z,9.23
2023-12-26T23:02:34.413Z,8.77
2023-12-26T23:05:14.099Z,8.47
2023-12-26T23:07:46.733Z,9.10
2023-12-26T23:10:27.482Z,9.53
2023-12-26T23:13:00.035Z,9.80
2023-12-26T23:15:38.757Z,9.80
2023-12-26T23:18:11.155Z,9.07
2023-12-26T23:20:50.626Z,8.73
2023-12-26T23:23:23.266Z,8.77
2023-12-26T23:26:01.789Z,7.90
2023-12-26T23:28:34.308Z,9.03
2023-12-26T23:31:18.761Z,8.30
2023-12-26T23:33:52.232Z,9.07
2023-12-26T23:36:32.040Z,7.97
2023-12-26T23:39:04.883Z,8.37
2023-12-26T23:41:48.316Z,7.83
2023-12-26T23:44:20.835Z,8.23
2023-12-26T23:46:59.725Z,7.70
2023-12-26T23:49:32.365Z,7.00
2023-12-26T23:52:12.312Z,7.90
2023-12-26T23:54:44.840Z,7.10
2023-12-26T23:57:23.847Z,6.27
2023-12-26T23:59:56.357Z,7.50
